Weather

Webcam

Metar / TAF

Zurich

  • LSZH 132050Z VRB02KT 9999 FEW079 16/10 Q1019 NOSIG

  • TAF LSZH 132025Z 1321/1503 VRB03KT CAVOK TX26/1415Z TN10/1404Z TEMPO 1409/1423 9999 FEW050 PROB40 TEMPO 1413/1418 28010KT BECMG 1423/1502 9999 BKN075 PROB30 TEMPO 1423/1503 SHRA

Dübendorf

  • LSMD 132150Z AUTO 00000KT 9999NDV NCD 16/10 Q1019 RMK

  • TAF LSMD 130925Z 1310/1416 VRB03KT CAVOK TEMPO 1310/1317 9999 FEW060 PROB30 TEMPO 1410/1414 28010KT BECMG 1412/1415 9999 SCT060

St. Gallen

  • LSZR 132150Z AUTO 19003KT CAVOK 17/10 Q1019

  • TAF AMD LSZR 222054Z 2220/2224 CNL

Bern

  • LSZB 132150Z AUTO VRB02KT CAVOK 13/12 Q1019

  • TAF AMD TAF AMD LSZB 222054Z 2220/2224 CNL

Locarno

  • LSZL 132150Z AUTO 09004KT 9999NDV SCT051 SCT061 19/19 Q1018 RMK

  • TAF AMD TAF AMD LSZL 150713Z 1509/1521 VRB03KT 9999 SCT050

Samedan

  • LSZS 132150Z AUTO 18002KT 9999 SCT080 08/08 Q1022

  • TAF AMD LSZS 222054Z 2220/2224 CNL

Geneve

  • LSGG 132150Z AUTO VRB01KT 9999 SCT065 BKN075 18/12 Q1018 NOSIG

  • TAF LSGG 132025Z 1321/1503 VRB03KT 9999 SCT080 TX25/1415Z TN12/1404Z BECMG 1321/1323 CAVOK BECMG 1410/1412 9999 FEW040 BKN090 PROB30 TEMPO 1411/1415 33010KT

Weather-Charts



Wind at FL50: 06:00z, 09:00z, 12:00z, 15:00z and 18:00z